634  
SHUS65 KGJT 222025  
FWOGJT  
 
DAILY FIRE WEATHER OBSERVATION  
NATIONAL WEATHER SERVICE GRAND JUNCTION CO  
212 PM MDT TUE AUG 22 2017  
 
STATE OF THE WEATHER (W) 1  
DRY BULB TEMPERATURE 88 DEGREES FAHRENHEIT  
RELATIVE HUMIDITY (RH) 22 PERCENT  
LIGHTNING ACTIVITY LEVEL  
(LAL - MIDNIGHT TO 2 PM) 1  
WIND DIRECTION 225 DEGREES (C IF CALM)  
WIND SPEED 8 MPH  
MAX TEMP (2 PM - 2 PM) 94 DEGREES FAHRENHEIT  
MIN TEMP (2 PM - 2 PM) 64 DEGREES FAHRENHEIT  
MAX RH (2 PM - 2 PM) 43 PERCENT  
MIN RH (2 PM - 2 PM) 14 PERCENT  
PCPN DURATION 0.0 HOURS  
PCPN AMT (2 PM - 2 PM) 0.0 INCHES  
LAL (2 PM - 2 PM) 2  
 

 
 
METAR KGJT 221953Z 24007KT 210V280 10SM CLR 31/07 A3021 RMK AO2  
SLP149 T03110067  
 
CLICK HERE TO GO TO PREVIOUS BULLETINS.

The Nexlab CO Page
The Nexlab UT Page Main Text Page